createdAt,value
2023-02-22T00:01:35.615Z,5.78
2023-02-22T00:04:06.560Z,4.78
2023-02-22T00:06:36.590Z,5.60
2023-02-22T00:09:09.444Z,5.38
2023-02-22T00:11:39.446Z,7.83
2023-02-22T00:14:09.105Z,4.55
2023-02-22T00:16:38.461Z,7.43
2023-02-22T00:19:07.867Z,6.57
2023-02-22T00:21:37.413Z,7.07
2023-02-22T00:24:23.304Z,6.40
2023-02-22T00:26:55.591Z,7.88
2023-02-22T00:29:25.844Z,5.72
2023-02-22T00:31:55.230Z,6.75
2023-02-22T00:34:25.301Z,7.20
2023-02-22T00:36:54.765Z,9.70
2023-02-22T00:39:25.288Z,6.53
2023-02-22T00:41:55.775Z,6.38
2023-02-22T00:44:25.433Z,7.25
2023-02-22T00:46:57.823Z,5.38
2023-02-22T00:49:27.309Z,5.60
2023-02-22T00:51:56.753Z,5.55
2023-02-22T00:54:28.086Z,7.18
2023-02-22T00:56:58.302Z,7.95
2023-02-22T00:59:31.259Z,7.38
2023-02-22T01:02:00.345Z,7.63
2023-02-22T01:04:30.331Z,7.68
2023-02-22T01:07:00.697Z,9.07
2023-02-22T01:09:31.313Z,6.80
2023-02-22T01:12:00.460Z,7.60
2023-02-22T01:14:30.232Z,9.00
2023-02-22T01:16:59.596Z,9.00
2023-02-22T01:19:29.218Z,7.38
2023-02-22T01:21:58.951Z,8.20
2023-02-22T01:24:28.239Z,9.95
2023-02-22T01:26:58.728Z,8.48
2023-02-22T01:29:27.953Z,8.15
2023-02-22T01:31:59.331Z,8.52
2023-02-22T01:34:30.250Z,6.80
2023-02-22T01:36:59.412Z,9.55
2023-02-22T01:39:28.600Z,8.68
2023-02-22T01:41:59.298Z,9.65
2023-02-22T01:44:32.158Z,6.75
2023-02-22T01:47:03.328Z,9.02
2023-02-22T01:49:37.852Z,6.70
2023-02-22T01:52:13.245Z,7.45
2023-02-22T01:54:47.304Z,6.25
2023-02-22T01:57:23.286Z,6.15
2023-02-22T01:59:57.920Z,8.00
2023-02-22T02:02:27.895Z,6.35
2023-02-22T02:04:59.676Z,7.10
2023-02-22T02:07:29.716Z,6.50
2023-02-22T02:10:01.366Z,8.52
2023-02-22T02:12:35.975Z,5.32
2023-02-22T02:15:23.106Z,6.32
2023-02-22T02:17:56.731Z,5.35
2023-02-22T02:26:03.942Z,6.00
2023-02-22T02:29:08.599Z,8.73
2023-02-22T02:32:28.447Z,8.05
2023-02-22T02:35:05.319Z,5.55
2023-02-22T02:37:42.326Z,4.68
2023-02-22T02:40:21.559Z,6.10
2023-02-22T02:42:59.674Z,5.65
2023-02-22T02:45:34.239Z,6.07
2023-02-22T02:48:05.343Z,5.32
2023-02-22T02:50:42.615Z,5.70
2023-02-22T02:53:15.038Z,7.55
2023-02-22T02:55:45.890Z,5.90
2023-02-22T02:58:20.131Z,7.72
2023-02-22T03:00:53.513Z,6.45
2023-02-22T03:03:49.877Z,8.07
2023-02-22T03:06:44.326Z,4.88
2023-02-22T03:09:21.033Z,5.65
2023-02-22T03:12:01.562Z,7.07
2023-02-22T03:14:42.483Z,9.20
2023-02-22T03:17:23.760Z,6.57
2023-02-22T03:19:59.951Z,6.57
2023-02-22T03:22:34.678Z,7.00
2023-02-22T03:25:09.184Z,6.95
2023-02-22T03:27:43.840Z,7.28
2023-02-22T03:30:19.726Z,10.25
2023-02-22T03:32:53.801Z,6.90
2023-02-22T03:35:27.044Z,7.78
2023-02-22T03:38:02.171Z,7.68
2023-02-22T03:40:35.793Z,8.90
2023-02-22T03:43:08.997Z,9.77
2023-02-22T03:45:44.210Z,6.85
2023-02-22T03:48:21.004Z,11.85
2023-02-22T03:50:51.956Z,7.97
2023-02-22T03:53:24.330Z,9.55
2023-02-22T03:55:58.007Z,8.15
2023-02-22T03:58:32.943Z,8.57
2023-02-22T04:01:02.615Z,7.75
2023-02-22T04:03:32.115Z,8.98
2023-02-22T04:06:01.430Z,8.10
2023-02-22T04:08:32.922Z,7.72
2023-02-22T04:11:02.213Z,7.32
2023-02-22T04:13:33.200Z,7.43
2023-02-22T04:16:02.445Z,9.93
2023-02-22T04:18:31.555Z,9.50
2023-02-22T04:21:02.672Z,8.68
2023-02-22T04:23:44.351Z,10.25
2023-02-22T04:26:14.912Z,9.93
2023-02-22T04:28:47.453Z,9.20
2023-02-22T04:31:19.758Z,9.20
2023-02-22T04:33:49.362Z,7.85
2023-02-22T04:36:22.277Z,7.90
2023-02-22T04:38:53.093Z,9.25
2023-02-22T04:41:25.048Z,9.32
2023-02-22T04:43:54.792Z,8.13
2023-02-22T04:46:25.962Z,9.98
2023-02-22T04:48:55.773Z,8.38
2023-02-22T04:51:27.810Z,7.45
2023-02-22T04:54:06.937Z,7.75
2023-02-22T04:56:37.593Z,9.30
2023-02-22T04:59:08.478Z,7.68
2023-02-22T05:01:38.502Z,9.52
2023-02-22T05:04:09.072Z,8.07
2023-02-22T05:06:38.575Z,8.23
2023-02-22T05:09:09.190Z,9.60
2023-02-22T05:11:38.662Z,8.40
2023-02-22T05:14:07.988Z,10.55
2023-02-22T05:16:37.233Z,12.30
2023-02-22T05:19:06.516Z,8.93
2023-02-22T05:21:35.820Z,10.27
2023-02-22T05:24:05.416Z,26.58
2023-02-22T05:26:37.024Z,22.30
2023-02-22T05:29:06.732Z,15.57
2023-02-22T05:31:36.167Z,11.93
2023-02-22T05:34:06.208Z,12.77
2023-02-22T05:36:35.449Z,12.98
2023-02-22T05:39:05.485Z,11.43
2023-02-22T05:41:34.771Z,21.65
2023-02-22T05:44:06.530Z,19.17
2023-02-22T05:46:35.963Z,15.25
2023-02-22T05:49:05.424Z,9.43
2023-02-22T05:51:37.611Z,13.05
2023-02-22T05:54:06.707Z,11.18
2023-02-22T05:56:36.472Z,12.90
2023-02-22T05:59:07.321Z,11.95
2023-02-22T06:01:36.924Z,12.35
2023-02-22T06:04:06.607Z,11.27
2023-02-22T06:06:36.151Z,14.30
2023-02-22T06:09:06.275Z,12.52
2023-02-22T06:11:35.567Z,12.32
2023-02-22T06:14:06.313Z,16.90
2023-02-22T06:16:35.602Z,12.75
2023-02-22T06:19:05.768Z,14.88
2023-02-22T06:21:35.258Z,12.75
2023-02-22T06:24:05.335Z,12.52
2023-02-22T06:26:35.062Z,12.60
2023-02-22T06:29:06.066Z,12.23
2023-02-22T06:31:36.827Z,10.75
2023-02-22T06:34:06.587Z,15.98
2023-02-22T06:36:35.583Z,12.20
2023-02-22T06:39:05.740Z,12.70
2023-02-22T06:41:38.764Z,11.75
2023-02-22T06:44:08.250Z,14.85
2023-02-22T06:46:38.975Z,12.40
2023-02-22T06:49:08.191Z,17.75
2023-02-22T06:51:38.875Z,12.40
2023-02-22T06:54:08.223Z,12.77
2023-02-22T06:56:38.005Z,16.38
2023-02-22T06:59:07.037Z,13.55
2023-02-22T07:01:36.492Z,15.75
2023-02-22T07:04:07.238Z,16.13
2023-02-22T07:06:37.124Z,12.77
2023-02-22T07:09:07.238Z,10.38
2023-02-22T07:11:40.188Z,14.77
2023-02-22T07:14:09.945Z,17.63
2023-02-22T07:16:39.821Z,8.90
2023-02-22T07:19:11.079Z,15.95
2023-02-22T07:21:40.761Z,10.27
2023-02-22T07:24:10.607Z,9.57
2023-02-22T07:26:42.200Z,10.32
2023-02-22T07:29:12.661Z,10.23
2023-02-22T07:31:42.056Z,12.55
2023-02-22T07:34:13.190Z,12.82
2023-02-22T07:36:42.523Z,14.48
2023-02-22T07:39:12.350Z,13.77
2023-02-22T07:41:41.707Z,10.93
2023-02-22T07:44:24.697Z,9.23
2023-02-22T07:46:54.654Z,15.18
2023-02-22T07:49:25.582Z,14.25
2023-02-22T07:51:55.123Z,25.92
2023-02-22T07:54:24.334Z,20.90
2023-02-22T07:56:53.981Z,17.30
2023-02-22T07:59:23.575Z,14.05
2023-02-22T08:01:53.769Z,13.35
2023-02-22T08:04:24.860Z,9.90
2023-02-22T08:06:54.677Z,16.27
2023-02-22T08:09:24.804Z,17.70
2023-02-22T08:11:54.266Z,14.02
2023-02-22T08:14:23.833Z,14.93
2023-02-22T08:16:53.367Z,11.93
2023-02-22T08:19:23.009Z,9.95
2023-02-22T08:21:53.816Z,13.85
2023-02-22T08:24:23.436Z,8.25
2023-02-22T08:26:52.907Z,10.95
2023-02-22T08:29:23.018Z,10.38
2023-02-22T08:31:54.267Z,11.05
2023-02-22T08:34:24.933Z,9.32
2023-02-22T08:36:55.965Z,9.07
2023-02-22T08:39:25.289Z,8.15
2023-02-22T08:41:54.735Z,9.20
2023-02-22T08:44:24.363Z,7.53
2023-02-22T08:46:54.056Z,8.98
2023-02-22T08:49:23.384Z,9.18
2023-02-22T08:51:54.210Z,7.82
2023-02-22T08:54:23.949Z,10.70
2023-02-22T08:56:53.502Z,9.13
2023-02-22T08:59:23.138Z,8.77
2023-02-22T09:01:52.552Z,8.65
2023-02-22T09:04:22.430Z,8.15
2023-02-22T09:06:52.017Z,10.00
2023-02-22T09:09:23.811Z,10.02
2023-02-22T09:11:53.801Z,9.57
2023-02-22T09:14:23.451Z,8.40
2023-02-22T09:16:52.688Z,8.35
2023-02-22T09:19:22.258Z,7.93
2023-02-22T09:21:55.263Z,8.23
2023-02-22T09:24:26.513Z,8.90
2023-02-22T09:26:56.282Z,8.00
2023-02-22T09:29:27.973Z,13.13
2023-02-22T09:31:58.328Z,11.18
2023-02-22T09:34:29.799Z,9.05
2023-02-22T09:36:59.419Z,14.98
2023-02-22T09:39:30.446Z,13.13
2023-02-22T09:42:10.540Z,10.38
2023-02-22T09:44:49.471Z,9.73
2023-02-22T09:47:32.392Z,10.85
2023-02-22T09:50:10.958Z,9.10
2023-02-22T09:52:45.226Z,10.32
2023-02-22T09:55:28.908Z,10.73
2023-02-22T09:58:01.582Z,11.85
2023-02-22T10:00:34.915Z,10.57
2023-02-22T10:03:17.590Z,10.55
2023-02-22T10:05:54.184Z,7.32
2023-02-22T10:08:31.182Z,8.20
2023-02-22T10:11:11.798Z,9.23
2023-02-22T10:13:53.218Z,8.40
2023-02-22T10:16:28.888Z,8.05
2023-02-22T10:19:17.911Z,9.38
2023-02-22T10:22:07.047Z,9.50
2023-02-22T10:24:46.616Z,10.35
2023-02-22T10:27:20.340Z,8.70
2023-02-22T10:29:54.205Z,8.27
2023-02-22T10:34:56.680Z,10.73
2023-02-22T10:37:30.024Z,10.00
2023-02-22T10:40:06.538Z,9.90
2023-02-22T10:42:37.358Z,10.82
2023-02-22T10:45:15.446Z,10.32
2023-02-22T10:47:45.908Z,10.95
2023-02-22T10:50:16.664Z,7.43
2023-02-22T10:52:46.361Z,8.25
2023-02-22T10:55:17.514Z,10.18
2023-02-22T10:57:50.969Z,12.90
2023-02-22T11:00:26.487Z,9.40
2023-02-22T11:02:58.330Z,9.98
2023-02-22T11:05:36.958Z,9.52
2023-02-22T11:08:25.965Z,9.05
2023-02-22T11:10:57.192Z,9.20
2023-02-22T11:13:31.091Z,9.10
2023-02-22T11:16:03.344Z,8.32
2023-02-22T11:18:36.296Z,10.48
2023-02-22T11:21:10.384Z,10.93
2023-02-22T11:23:44.684Z,10.55
2023-02-22T11:26:19.274Z,8.65
2023-02-22T11:28:56.260Z,7.57
2023-02-22T11:31:30.287Z,8.95
2023-02-22T11:34:01.593Z,11.10
2023-02-22T11:36:34.076Z,12.10
2023-02-22T11:39:05.834Z,9.23
2023-02-22T11:41:35.586Z,27.13
2023-02-22T11:44:24.786Z,20.00
2023-02-22T11:46:56.918Z,12.77
2023-02-22T11:49:35.331Z,8.55
2023-02-22T11:52:18.026Z,8.05
2023-02-22T11:55:36.458Z,8.10
2023-02-22T11:58:38.030Z,10.98
2023-02-22T12:01:18.392Z,13.00
2023-02-22T12:04:09.030Z,14.25
2023-02-22T12:06:52.084Z,9.88
2023-02-22T12:09:28.712Z,10.38
2023-02-22T12:12:09.366Z,8.00
2023-02-22T12:14:49.684Z,8.77
2023-02-22T12:17:43.601Z,8.52
2023-02-22T12:20:24.789Z,8.43
2023-02-22T12:23:02.062Z,7.28
2023-02-22T12:25:35.512Z,8.15
2023-02-22T12:28:24.286Z,8.60
2023-02-22T12:31:05.087Z,10.75
2023-02-22T12:33:51.416Z,9.30
2023-02-22T12:36:26.248Z,7.75
2023-02-22T12:39:07.541Z,8.52
2023-02-22T12:41:45.120Z,10.50
2023-02-22T12:44:20.473Z,7.10
2023-02-22T12:47:06.751Z,9.32
2023-02-22T12:49:44.032Z,8.20
2023-02-22T12:52:22.251Z,10.60
2023-02-22T12:54:59.737Z,10.05
2023-02-22T12:57:44.550Z,11.20
2023-02-22T13:00:23.294Z,8.05
2023-02-22T13:03:02.615Z,8.32
2023-02-22T13:05:38.265Z,7.20
2023-02-22T13:08:28.247Z,9.88
2023-02-22T13:11:12.944Z,9.63
2023-02-22T13:13:55.217Z,10.35
2023-02-22T13:16:36.938Z,11.02
2023-02-22T13:19:18.829Z,10.38
2023-02-22T13:21:56.816Z,7.32
2023-02-22T13:24:30.396Z,7.15
2023-02-22T13:27:05.542Z,12.15
2023-02-22T13:29:39.716Z,10.93
2023-02-22T13:32:32.286Z,8.75
2023-02-22T13:35:21.664Z,9.35
2023-02-22T13:38:09.753Z,9.30
2023-02-22T13:41:14.787Z,13.40
2023-02-22T13:44:01.256Z,14.98
2023-02-22T13:47:03.039Z,14.35
2023-02-22T13:49:53.985Z,10.75
2023-02-22T13:52:26.764Z,8.98
2023-02-22T13:55:01.651Z,9.18
2023-02-22T13:57:38.312Z,10.25
2023-02-22T14:00:44.478Z,11.32
2023-02-22T14:03:40.714Z,17.33
2023-02-22T14:06:41.856Z,8.75
2023-02-22T14:09:20.055Z,12.40
2023-02-22T14:11:57.994Z,12.60
2023-02-22T14:14:27.776Z,12.68
2023-02-22T14:17:24.450Z,14.57
2023-02-22T14:20:21.057Z,13.05
2023-02-22T14:22:53.155Z,19.05
2023-02-22T14:25:39.348Z,14.82
2023-02-22T14:28:41.511Z,12.77
2023-02-22T14:34:13.749Z,9.30
2023-02-22T14:36:52.572Z,13.43
2023-02-22T14:39:32.135Z,16.27
2023-02-22T14:42:07.100Z,12.23
2023-02-22T14:44:41.688Z,14.30
2023-02-22T14:47:21.080Z,17.35
2023-02-22T14:49:54.920Z,13.52
2023-02-22T14:52:29.187Z,12.60
2023-02-22T14:55:06.131Z,15.55
2023-02-22T14:57:46.122Z,13.80
2023-02-22T15:00:22.995Z,11.23
2023-02-22T15:02:57.447Z,9.57
2023-02-22T15:05:35.392Z,10.63
2023-02-22T15:08:07.850Z,12.88
2023-02-22T15:10:43.073Z,9.55
2023-02-22T15:13:23.865Z,16.05
2023-02-22T15:16:01.881Z,10.65
2023-02-22T15:18:35.438Z,12.88
2023-02-22T15:21:08.505Z,10.82
2023-02-22T15:23:44.177Z,10.07
2023-02-22T15:26:24.175Z,9.85
2023-02-22T15:28:58.036Z,9.60
2023-02-22T15:31:34.847Z,8.70
2023-02-22T15:34:24.465Z,9.60
2023-02-22T15:36:57.757Z,9.35
2023-02-22T15:39:29.833Z,9.85
2023-02-22T15:42:08.004Z,9.77
2023-02-22T15:44:39.371Z,12.05
2023-02-22T15:47:14.217Z,9.80
2023-02-22T15:49:44.186Z,11.90
2023-02-22T15:52:20.995Z,10.65
2023-02-22T15:54:53.582Z,8.88
2023-02-22T15:57:25.501Z,11.90
2023-02-22T15:59:58.401Z,13.38
2023-02-22T16:02:38.999Z,11.63
2023-02-22T16:05:12.962Z,18.92
2023-02-22T16:07:46.271Z,13.25
2023-02-22T16:10:25.542Z,11.18
2023-02-22T16:13:14.400Z,17.70
2023-02-22T16:15:57.524Z,15.23
2023-02-22T16:18:33.881Z,15.65
2023-02-22T16:21:06.472Z,16.52
2023-02-22T16:23:46.260Z,14.70
2023-02-22T16:26:28.757Z,13.98
2023-02-22T16:29:00.017Z,15.77
2023-02-22T16:31:33.869Z,17.95
2023-02-22T16:34:06.510Z,14.90
2023-02-22T16:36:41.090Z,15.82
2023-02-22T16:39:15.369Z,12.60
2023-02-22T16:41:44.468Z,15.65
2023-02-22T16:44:14.607Z,12.05
2023-02-22T16:46:44.184Z,14.00
2023-02-22T16:49:15.356Z,15.50
2023-02-22T16:51:47.866Z,11.48
2023-02-22T16:54:25.694Z,12.68
2023-02-22T16:56:57.677Z,15.75
2023-02-22T16:59:27.298Z,13.57
2023-02-22T17:01:58.843Z,13.95
2023-02-22T17:04:29.880Z,13.80
2023-02-22T17:07:00.246Z,17.30
2023-02-22T17:09:30.067Z,18.58
2023-02-22T17:11:59.563Z,17.05
2023-02-22T17:14:33.674Z,14.77
2023-02-22T17:17:05.803Z,20.25
2023-02-22T17:19:37.760Z,13.88
2023-02-22T17:22:11.265Z,14.15
2023-02-22T17:24:41.208Z,11.68
2023-02-22T17:27:10.832Z,13.18
2023-02-22T17:29:42.285Z,14.55
2023-02-22T17:32:12.148Z,12.50
2023-02-22T17:34:43.250Z,11.57
2023-02-22T17:37:13.012Z,8.85
2023-02-22T17:39:42.482Z,10.85
2023-02-22T17:42:15.717Z,12.68
2023-02-22T17:44:45.228Z,11.50
2023-02-22T17:47:14.521Z,10.02
2023-02-22T17:49:45.584Z,12.00
2023-02-22T17:52:16.019Z,10.35
2023-02-22T17:54:45.482Z,10.65
2023-02-22T17:57:15.512Z,12.65
2023-02-22T17:59:44.759Z,10.65
2023-02-22T18:02:14.859Z,10.25
2023-02-22T18:04:46.350Z,8.55
2023-02-22T18:07:19.864Z,13.18
2023-02-22T18:09:49.663Z,11.18
2023-02-22T18:12:19.599Z,12.07
2023-02-22T18:14:49.279Z,10.60
2023-02-22T18:17:18.955Z,9.57
2023-02-22T18:19:49.720Z,9.75
2023-02-22T18:22:19.522Z,9.27
2023-02-22T18:24:49.427Z,8.43
2023-02-22T18:27:18.842Z,11.02
2023-02-22T18:29:49.254Z,11.40
2023-02-22T18:32:18.836Z,11.35
2023-02-22T18:34:50.017Z,8.80
2023-02-22T18:37:20.514Z,10.55
2023-02-22T18:39:51.007Z,10.73
2023-02-22T18:42:21.615Z,10.32
2023-02-22T18:44:52.045Z,12.27
2023-02-22T18:47:22.881Z,10.95
2023-02-22T18:49:58.082Z,11.80
2023-02-22T18:52:27.654Z,11.35
2023-02-22T18:54:57.049Z,9.75
2023-02-22T18:57:26.617Z,12.15
2023-02-22T18:59:58.661Z,11.30
2023-02-22T19:02:29.047Z,11.10
2023-02-22T19:05:03.965Z,11.80
2023-02-22T19:07:34.514Z,11.90
2023-02-22T19:10:04.252Z,9.43
2023-02-22T19:12:34.591Z,14.27
2023-02-22T19:15:04.682Z,11.57
2023-02-22T19:17:37.102Z,14.57
2023-02-22T19:20:12.094Z,10.73
2023-02-22T19:22:42.904Z,11.68
2023-02-22T19:25:14.356Z,11.52
2023-02-22T19:27:45.340Z,11.65
2023-02-22T19:30:17.385Z,9.65
2023-02-22T19:32:50.866Z,10.90
2023-02-22T19:35:27.238Z,10.02
2023-02-22T19:37:57.232Z,10.68
2023-02-22T19:40:27.723Z,9.95
2023-02-22T19:42:58.785Z,12.18
2023-02-22T19:45:28.622Z,13.20
2023-02-22T19:47:58.442Z,13.50
2023-02-22T19:50:29.941Z,10.75
2023-02-22T19:52:59.496Z,14.30
2023-02-22T19:55:32.780Z,17.17
2023-02-22T19:58:02.902Z,12.40
2023-02-22T20:00:36.344Z,11.80
2023-02-22T20:03:07.747Z,14.80
2023-02-22T20:05:42.223Z,14.73
2023-02-22T20:08:12.128Z,14.95
2023-02-22T20:10:42.205Z,14.75
2023-02-22T20:13:12.632Z,15.35
2023-02-22T20:15:45.396Z,15.80
2023-02-22T20:18:17.068Z,14.68
2023-02-22T20:20:48.606Z,13.80
2023-02-22T20:23:18.210Z,12.25
2023-02-22T20:25:54.380Z,11.18
2023-02-22T20:28:25.486Z,16.55
2023-02-22T20:30:56.781Z,14.82
2023-02-22T20:33:26.838Z,12.35
2023-02-22T20:35:58.181Z,13.43
2023-02-22T20:38:29.220Z,15.95
2023-02-22T20:40:59.370Z,14.48
2023-02-22T20:43:29.082Z,15.50
2023-02-22T20:46:02.052Z,16.08
2023-02-22T20:48:32.355Z,15.98
2023-02-22T20:51:08.301Z,15.07
2023-02-22T20:53:39.585Z,13.38
2023-02-22T20:56:12.736Z,15.55
2023-02-22T20:58:42.383Z,12.95
2023-02-22T21:01:13.966Z,16.70
2023-02-22T21:03:44.690Z,15.18
2023-02-22T21:06:17.854Z,13.68
2023-02-22T21:08:51.550Z,17.25
2023-02-22T21:13:51.950Z,15.15
2023-02-22T21:16:22.781Z,13.75
2023-02-22T21:18:54.167Z,15.15
2023-02-22T21:21:25.832Z,16.58
2023-02-22T21:23:57.159Z,16.33
2023-02-22T21:26:28.032Z,13.38
2023-02-22T21:29:00.778Z,15.70
2023-02-22T21:31:31.800Z,15.20
2023-02-22T21:34:04.254Z,15.82
2023-02-22T21:36:35.450Z,16.00
2023-02-22T21:39:09.282Z,15.27
2023-02-22T21:41:40.969Z,18.17
2023-02-22T21:44:10.751Z,15.98
2023-02-22T21:46:40.239Z,18.20
2023-02-22T21:49:09.685Z,17.00
2023-02-22T21:51:40.646Z,15.95
2023-02-22T21:54:13.164Z,19.55
2023-02-22T21:56:44.296Z,17.70
2023-02-22T21:59:16.337Z,20.27
2023-02-22T22:01:48.182Z,13.52
2023-02-22T22:04:19.969Z,14.88
2023-02-22T22:06:52.882Z,16.13
2023-02-22T22:09:23.766Z,18.20
2023-02-22T22:11:54.552Z,15.38
2023-02-22T22:14:25.410Z,18.63
2023-02-22T22:16:58.768Z,21.17
2023-02-22T22:19:29.246Z,18.05
2023-02-22T22:22:00.167Z,20.40
2023-02-22T22:24:32.012Z,18.52
2023-02-22T22:27:03.906Z,15.38
2023-02-22T22:29:34.553Z,16.73
2023-02-22T22:32:06.298Z,20.92
2023-02-22T22:34:38.015Z,15.68
2023-02-22T22:37:08.926Z,14.02
2023-02-22T22:39:39.050Z,12.85
2023-02-22T22:42:09.231Z,18.48
2023-02-22T22:44:42.173Z,14.48
2023-02-22T22:47:13.762Z,12.65
2023-02-22T22:49:43.826Z,15.13
2023-02-22T22:52:18.534Z,17.00
2023-02-22T22:54:47.624Z,17.30
2023-02-22T22:57:17.451Z,18.30
2023-02-22T22:59:47.264Z,15.63
2023-02-22T23:02:20.392Z,17.98
2023-02-22T23:04:51.767Z,15.68
2023-02-22T23:07:22.625Z,17.00
2023-02-22T23:09:52.287Z,14.65
2023-02-22T23:12:31.197Z,13.30
2023-02-22T23:15:02.457Z,15.02
2023-02-22T23:17:41.074Z,15.45
2023-02-22T23:20:12.432Z,15.50
2023-02-22T23:22:47.270Z,15.85
2023-02-22T23:25:18.376Z,13.77
2023-02-22T23:27:48.002Z,16.38
2023-02-22T23:30:18.824Z,14.43
2023-02-22T23:32:48.117Z,13.95
2023-02-22T23:35:19.303Z,16.17
2023-02-22T23:37:53.835Z,15.13
2023-02-22T23:40:26.074Z,12.93
2023-02-22T23:42:55.773Z,14.02
2023-02-22T23:45:25.600Z,16.80
2023-02-22T23:47:56.259Z,13.13
2023-02-22T23:50:27.002Z,12.48
2023-02-22T23:52:59.676Z,15.95
2023-02-22T23:55:31.631Z,13.70
2023-02-22T23:58:01.387Z,12.13
